Time,TemperatureF,DewpointF,PressureIn,WindDirection,WindDirectionDegrees,WindSpeedMPH,WindSpeedGustMPH,Humidity,HourlyPrecipIn,Conditions,Clouds,dailyrainin,SoftwareType,DateUTC
2013-05-05 00:01:00,53.8,50.7,30.06,SSE,158,2.0,3.8,89,0.10,,,0.00,WUHU216HW,2013-05-05 04:01:00,
2013-05-05 00:02:00,53.8,50.7,30.06,SSE,156,2.0,3.8,89,0.10,,,0.00,WUHU216HW,2013-05-05 04:02:00,
2013-05-05 00:07:00,53.6,50.5,30.06,NE,45,2.9,2.9,89,0.10,,,0.00,WUHU216HW,2013-05-05 04:07:00,
2013-05-05 00:12:00,53.8,50.7,30.06,WNW,282,3.3,5.4,89,0.10,,,0.00,WUHU216HW,2013-05-05 04:12:00,
2013-05-05 00:17:00,53.8,50.7,30.06,SE,135,1.8,5.4,89,0.10,,,0.00,WUHU216HW,2013-05-05 04:17:00,
2013-05-05 00:22:00,53.6,50.5,30.06,South,180,2.5,2.5,89,0.10,,,0.00,WUHU216HW,2013-05-05 04:22:00,
2013-05-05 00:28:00,53.8,50.7,30.05,NNE,23,3.4,3.4,89,0.12,,,0.02,WUHU216HW,2013-05-05 04:28:00,
2013-05-05 00:33:00,53.8,50.9,30.05,NW,315,3.1,3.8,90,0.12,,,0.02,WUHU216HW,2013-05-05 04:33:00,
2013-05-05 00:38:00,53.6,50.8,30.05,SE,135,2.5,4.5,90,0.14,,,0.04,WUHU216HW,2013-05-05 04:38:00,
2013-05-05 00:43:00,53.6,50.8,30.04,NE,45,2.5,4.5,90,0.14,,,0.06,WUHU216HW,2013-05-05 04:43:00,
2013-05-05 00:48:00,53.8,51.2,30.04,NE,34,4.3,6.3,91,0.13,,,0.08,WUHU216HW,2013-05-05 04:48:00,
2013-05-05 00:53:00,53.6,51.0,30.04,SSE,158,2.2,6.3,91,0.11,,,0.08,WUHU216HW,2013-05-05 04:53:00,
2013-05-05 00:58:00,53.6,50.8,30.05,NNW,338,0.9,2.5,90,0.09,,,0.09,WUHU216HW,2013-05-05 04:58:00,
2013-05-05 01:03:00,53.8,50.9,30.05,East,87,1.8,3.8,90,0.09,,,0.09,WUHU216HW,2013-05-05 05:03:00,
2013-05-05 01:08:00,53.8,50.9,30.05,NW,315,0.4,3.8,90,0.09,,,0.09,WUHU216HW,2013-05-05 05:08:00,
2013-05-05 01:13:00,53.8,50.9,30.05,East,88,1.6,2.5,90,0.10,,,0.10,WUHU216HW,2013-05-05 05:13:00,
2013-05-05 01:18:00,53.8,51.2,30.03,NE,35,1.7,2.5,91,0.10,,,0.10,WUHU216HW,2013-05-05 05:18:00,
2013-05-05 01:23:00,53.8,51.2,30.03,East,82,1.2,2.5,91,0.11,,,0.11,WUHU216HW,2013-05-05 05:23:00,
2013-05-05 01:28:00,53.8,51.2,30.03,SSE,158,1.1,5.4,91,0.09,,,0.11,WUHU216HW,2013-05-05 05:28:00,
2013-05-05 01:34:00,53.8,51.2,30.03,West,270,1.8,5.4,91,0.10,,,0.12,WUHU216HW,2013-05-05 05:34:00,
2013-05-05 01:39:00,53.8,51.2,30.03,NNW,338,3.4,3.4,91,0.07,,,0.13,WUHU216HW,2013-05-05 05:39:00,
2013-05-05 01:44:00,53.8,51.2,30.04,NW,308,1.9,3.4,91,0.07,,,0.13,WUHU216HW,2013-05-05 05:44:00,
2013-05-05 01:49:00,53.8,50.9,30.04,NW,312,0.4,3.4,90,0.05,,,0.13,WUHU216HW,2013-05-05 05:49:00,
2013-05-05 01:54:00,53.8,50.9,30.04,NW,304,2.3,3.6,90,0.04,,,0.13,WUHU216HW,2013-05-05 05:54:00,
2013-05-05 01:59:00,53.8,51.2,30.04,NNE,23,4.0,4.0,91,0.06,,,0.15,WUHU216HW,2013-05-05 05:59:00,
2013-05-05 02:04:00,53.8,51.2,30.03,ESE,113,2.5,4.0,91,0.07,,,0.16,WUHU216HW,2013-05-05 06:04:00,
2013-05-05 02:09:00,53.6,51.0,30.01,ENE,60,4.2,4.7,91,0.09,,,0.19,WUHU216HW,2013-05-05 06:09:00,
2013-05-05 02:15:00,53.6,51.3,29.99,North,354,2.0,4.7,92,0.12,,,0.22,WUHU216HW,2013-05-05 06:15:00,
2013-05-05 02:20:00,53.6,51.3,29.99,ESE,118,1.7,3.1,92,0.12,,,0.22,WUHU216HW,2013-05-05 06:20:00,
2013-05-05 02:25:00,53.5,50.9,29.99,West,270,2.2,2.2,91,0.15,,,0.26,WUHU216HW,2013-05-05 06:25:00,
2013-05-05 02:30:00,53.5,51.1,29.99,North,0,6.7,6.7,92,0.16,,,0.27,WUHU216HW,2013-05-05 06:30:00,
2013-05-05 02:35:00,53.3,50.7,29.99,SSW,203,1.1,6.7,91,0.16,,,0.28,WUHU216HW,2013-05-05 06:35:00,
2013-05-05 02:40:00,53.3,50.7,29.99,SSE,158,2.5,6.7,91,0.16,,,0.29,WUHU216HW,2013-05-05 06:40:00,
2013-05-05 02:45:00,53.3,50.7,29.99,NE,45,3.8,4.0,91,0.16,,,0.29,WUHU216HW,2013-05-05 06:45:00,
2013-05-05 02:51:00,53.3,50.7,29.98,South,180,1.6,4.0,91,0.16,,,0.29,WUHU216HW,2013-05-05 06:51:00,
2013-05-05 02:56:00,53.3,50.7,29.97,NE,48,2.0,3.8,91,0.16,,,0.30,WUHU216HW,2013-05-05 06:56:00,
2013-05-05 03:01:00,53.3,50.7,29.97,North,0,1.8,6.9,91,0.15,,,0.30,WUHU216HW,2013-05-05 07:01:00,
2013-05-05 03:06:00,53.3,50.7,29.98,SE,135,2.2,6.9,91,0.13,,,0.30,WUHU216HW,2013-05-05 07:06:00,
2013-05-05 03:11:00,53.1,50.5,29.97,NNE,16,2.2,3.1,91,0.11,,,0.30,WUHU216HW,2013-05-05 07:11:00,
2013-05-05 03:16:00,53.1,50.5,29.97,North,6,1.2,6.0,91,0.08,,,0.30,WUHU216HW,2013-05-05 07:16:00,
2013-05-05 03:21:00,53.1,50.5,29.97,NE,45,3.1,6.0,91,0.08,,,0.30,WUHU216HW,2013-05-05 07:21:00,
2013-05-05 03:26:00,53.1,50.8,29.96,WNW,293,3.1,7.6,92,0.04,,,0.30,WUHU216HW,2013-05-05 07:26:00,
2013-05-05 03:32:00,52.9,50.6,29.96,North,0,2.5,7.6,92,0.03,,,0.31,WUHU216HW,2013-05-05 07:32:00,
2013-05-05 03:37:00,52.9,50.3,29.96,ENE,68,4.5,4.5,91,0.04,,,0.32,WUHU216HW,2013-05-05 07:37:00,
2013-05-05 03:42:00,52.9,50.6,29.97,SSW,208,3.2,4.9,92,0.03,,,0.32,WUHU216HW,2013-05-05 07:42:00,
2013-05-05 03:47:00,52.9,50.3,29.97,ENE,68,0.9,4.9,91,0.03,,,0.32,WUHU216HW,2013-05-05 07:47:00,
2013-05-05 03:52:00,52.7,50.1,29.97,North,0,2.2,2.7,91,0.02,,,0.32,WUHU216HW,2013-05-05 07:52:00,
2013-05-05 03:57:00,52.7,50.4,29.96,SE,135,3.6,3.6,92,0.02,,,0.32,WUHU216HW,2013-05-05 07:57:00,
2013-05-05 04:02:00,52.6,50.0,29.97,NNE,23,4.7,4.7,91,0.03,,,0.33,WUHU216HW,2013-05-05 08:02:00,
2013-05-05 04:08:00,52.6,50.0,29.97,ESE,113,3.4,6.7,91,0.03,,,0.33,WUHU216HW,2013-05-05 08:08:00,
2013-05-05 04:13:00,52.6,50.0,29.98,NNW,346,4.7,6.7,91,0.04,,,0.34,WUHU216HW,2013-05-05 08:13:00,
2013-05-05 04:18:00,52.6,50.0,29.99,SE,144,2.8,5.1,91,0.04,,,0.34,WUHU216HW,2013-05-05 08:18:00,
2013-05-05 04:23:00,52.6,50.0,29.98,WSW,248,0.2,4.5,91,0.05,,,0.35,WUHU216HW,2013-05-05 08:23:00,
2013-05-05 04:28:00,52.4,49.8,29.99,ENE,68,2.5,2.5,91,0.10,,,0.40,WUHU216HW,2013-05-05 08:28:00,
2013-05-05 04:33:00,52.4,49.8,29.98,NE,45,2.5,4.9,91,0.10,,,0.41,WUHU216HW,2013-05-05 08:33:00,
2013-05-05 04:38:00,52.2,49.6,29.99,ENE,72,3.1,4.9,91,0.12,,,0.44,WUHU216HW,2013-05-05 08:38:00,
2013-05-05 04:43:00,52.2,49.6,29.99,North,0,2.5,4.5,91,0.14,,,0.46,WUHU216HW,2013-05-05 08:43:00,
2013-05-05 04:49:00,52.2,49.6,29.99,NNE,23,1.8,4.5,91,0.15,,,0.47,WUHU216HW,2013-05-05 08:49:00,
2013-05-05 04:54:00,52.0,49.4,29.99,NE,45,2.7,2.7,91,0.21,,,0.53,WUHU216HW,2013-05-05 08:54:00,
2013-05-05 04:59:00,52.0,49.4,29.99,ENE,71,2.0,2.7,91,0.24,,,0.56,WUHU216HW,2013-05-05 08:59:00,
2013-05-05 05:04:00,52.0,49.7,29.98,North,0,2.5,2.7,92,0.27,,,0.60,WUHU216HW,2013-05-05 09:04:00,
2013-05-05 05:09:00,51.8,49.5,29.97,NE,45,2.0,3.1,92,0.26,,,0.60,WUHU216HW,2013-05-05 09:09:00,
2013-05-05 05:14:00,51.8,49.5,29.97,NE,45,2.0,5.4,92,0.29,,,0.63,WUHU216HW,2013-05-05 09:14:00,
2013-05-05 05:19:00,51.8,49.5,29.96,ESE,113,4.0,5.4,92,0.31,,,0.65,WUHU216HW,2013-05-05 09:19:00,
2013-05-05 05:25:00,51.8,49.2,29.96,NNW,338,2.5,4.0,91,0.27,,,0.65,WUHU216HW,2013-05-05 09:25:00,
2013-05-05 05:30:00,51.7,49.1,29.96,ENE,68,2.5,6.0,91,0.27,,,0.67,WUHU216HW,2013-05-05 09:30:00,
2013-05-05 05:35:00,51.7,49.1,29.96,NE,45,2.7,6.0,91,0.26,,,0.67,WUHU216HW,2013-05-05 09:35:00,
2013-05-05 05:40:00,51.5,48.9,29.96,NNE,28,0.6,2.7,91,0.25,,,0.70,WUHU216HW,2013-05-05 09:40:00,
2013-05-05 05:45:00,51.5,48.9,29.96,East,90,3.4,3.4,91,0.24,,,0.70,WUHU216HW,2013-05-05 09:45:00,
2013-05-05 05:50:00,51.5,48.9,29.96,North,0,2.2,3.4,91,0.22,,,0.71,WUHU216HW,2013-05-05 09:50:00,
2013-05-05 05:55:00,51.5,48.9,29.95,ENE,68,2.2,4.0,91,0.18,,,0.71,WUHU216HW,2013-05-05 09:55:00,
2013-05-05 06:00:00,51.5,48.9,29.95,North,0,6.7,6.7,91,0.14,,,0.72,WUHU216HW,2013-05-05 10:00:00,
2013-05-05 06:06:00,51.5,48.9,29.95,North,11,3.4,6.7,91,0.13,,,0.73,WUHU216HW,2013-05-05 10:06:00,
2013-05-05 06:11:00,51.3,48.7,29.96,NNW,338,1.4,6.7,91,0.13,,,0.74,WUHU216HW,2013-05-05 10:11:00,
2013-05-05 06:16:00,51.3,48.7,29.96,SE,135,5.1,5.1,91,0.11,,,0.74,WUHU216HW,2013-05-05 10:16:00,
2013-05-05 06:21:00,51.1,48.5,29.96,North,0,3.6,5.1,91,0.09,,,0.74,WUHU216HW,2013-05-05 10:21:00,
2013-05-05 06:26:00,51.1,48.5,29.96,NNE,32,2.4,5.1,91,0.07,,,0.74,WUHU216HW,2013-05-05 10:26:00,
2013-05-05 06:31:00,50.9,48.3,29.95,WNW,293,2.2,2.9,91,0.07,,,0.74,WUHU216HW,2013-05-05 10:31:00,
2013-05-05 06:36:00,50.9,48.3,29.95,NNE,23,2.9,2.9,91,0.09,,,0.76,WUHU216HW,2013-05-05 10:36:00,
2013-05-05 06:41:00,50.9,48.3,29.95,NE,48,4.2,5.6,91,0.07,,,0.77,WUHU216HW,2013-05-05 10:41:00,
2013-05-05 06:46:00,50.8,48.2,29.94,South,180,3.4,5.6,91,0.07,,,0.78,WUHU216HW,2013-05-05 10:46:00,
2013-05-05 06:52:00,50.8,48.2,29.95,North,0,3.6,3.6,91,0.08,,,0.79,WUHU216HW,2013-05-05 10:52:00,
2013-05-05 06:57:00,50.8,48.2,29.95,ENE,68,5.4,5.4,91,0.08,,,0.79,WUHU216HW,2013-05-05 10:57:00,
2013-05-05 07:02:00,50.8,48.2,29.96,ENE,62,1.6,5.4,91,0.08,,,0.80,WUHU216HW,2013-05-05 11:02:00,
2013-05-05 07:07:00,50.8,48.2,29.96,SSW,203,1.3,5.4,91,0.07,,,0.80,WUHU216HW,2013-05-05 11:07:00,
2013-05-05 07:12:00,50.8,48.2,29.97,North,0,3.8,4.0,91,0.07,,,0.81,WUHU216HW,2013-05-05 11:12:00,
2013-05-05 07:17:00,50.8,48.2,29.97,East,90,2.9,4.0,91,0.07,,,0.81,WUHU216HW,2013-05-05 11:17:00,
2013-05-05 07:22:00,50.8,48.2,29.96,NE,37,3.1,6.0,91,0.08,,,0.82,WUHU216HW,2013-05-05 11:22:00,
2013-05-05 07:28:00,50.8,48.2,29.97,ENE,68,3.4,6.0,91,0.09,,,0.83,WUHU216HW,2013-05-05 11:28:00,
2013-05-05 07:33:00,50.8,48.2,29.97,South,180,3.1,3.4,91,0.09,,,0.83,WUHU216HW,2013-05-05 11:33:00,
2013-05-05 07:38:00,50.6,48.0,29.97,ENE,68,2.9,3.4,91,0.07,,,0.83,WUHU216HW,2013-05-05 11:38:00,
2013-05-05 07:43:00,50.8,48.2,29.97,East,90,1.1,3.1,91,0.06,,,0.83,WUHU216HW,2013-05-05 11:43:00,
2013-05-05 07:48:00,50.8,48.2,29.97,East,90,1.1,2.5,91,0.08,,,0.86,WUHU216HW,2013-05-05 11:48:00,
2013-05-05 07:53:00,50.8,48.2,29.97,SSE,158,2.9,2.9,91,0.11,,,0.90,WUHU216HW,2013-05-05 11:53:00,
2013-05-05 07:58:00,50.8,48.2,29.97,North,0,2.5,2.9,91,0.13,,,0.92,WUHU216HW,2013-05-05 11:58:00,
2013-05-05 08:03:00,50.6,48.0,29.97,ENE,68,4.5,4.5,91,0.13,,,0.93,WUHU216HW,2013-05-05 12:03:00,
2013-05-05 08:09:00,50.6,48.0,29.97,NNE,23,3.1,4.5,91,0.17,,,0.97,WUHU216HW,2013-05-05 12:09:00,
2013-05-05 08:14:00,50.6,48.0,29.97,NNE,23,3.1,4.5,91,0.16,,,0.97,WUHU216HW,2013-05-05 12:14:00,
2013-05-05 08:19:00,50.6,48.0,29.97,ENE,68,2.2,3.1,91,0.17,,,0.98,WUHU216HW,2013-05-05 12:19:00,
2013-05-05 08:24:00,50.6,48.0,29.97,NNE,23,4.7,4.7,91,0.17,,,0.99,WUHU216HW,2013-05-05 12:24:00,
2013-05-05 08:29:00,50.6,48.0,29.97,NE,45,1.1,4.7,91,0.18,,,1.01,WUHU216HW,2013-05-05 12:29:00,
2013-05-05 08:34:00,50.6,48.0,29.97,North,0,1.3,4.7,91,0.18,,,1.01,WUHU216HW,2013-05-05 12:34:00,
2013-05-05 08:39:00,50.6,48.0,29.97,South,178,1.2,1.3,91,0.18,,,1.01,WUHU216HW,2013-05-05 12:39:00,
2013-05-05 08:44:00,50.6,48.0,29.97,North,352,1.1,1.8,91,0.19,,,1.02,WUHU216HW,2013-05-05 12:44:00,
2013-05-05 08:49:00,50.6,48.0,29.97,NNW,338,0.7,1.8,91,0.16,,,1.02,WUHU216HW,2013-05-05 12:49:00,
2013-05-05 08:55:00,50.6,48.0,29.98,South,180,1.1,1.1,91,0.12,,,1.02,WUHU216HW,2013-05-05 12:55:00,
2013-05-05 09:00:00,50.6,48.0,29.98,SW,225,1.8,1.8,91,0.10,,,1.02,WUHU216HW,2013-05-05 13:00:00,
2013-05-05 09:05:00,50.6,48.0,29.99,NNW,338,0.9,1.8,91,0.10,,,1.03,WUHU216HW,2013-05-05 13:05:00,
2013-05-05 09:10:00,50.6,48.0,29.99,NNW,338,1.6,1.8,91,0.06,,,1.03,WUHU216HW,2013-05-05 13:10:00,
2013-05-05 09:15:00,50.6,48.0,29.99,NNW,338,0.4,1.8,91,0.07,,,1.05,WUHU216HW,2013-05-05 13:15:00,
2013-05-05 09:20:00,50.6,48.2,29.99,NE,47,2.5,2.7,92,0.08,,,1.07,WUHU216HW,2013-05-05 13:20:00,
2013-05-05 09:25:00,50.6,48.0,29.99,North,8,1.0,2.7,91,0.10,,,1.10,WUHU216HW,2013-05-05 13:25:00,
2013-05-05 09:30:00,50.6,48.0,30.00,North,0,0.7,1.3,91,0.12,,,1.13,WUHU216HW,2013-05-05 13:30:00,
2013-05-05 09:36:00,50.6,48.0,30.00,North,0,1.1,3.4,91,0.15,,,1.16,WUHU216HW,2013-05-05 13:36:00,
2013-05-05 09:41:00,50.6,48.2,30.00,NE,55,2.2,3.4,92,0.20,,,1.21,WUHU216HW,2013-05-05 13:41:00,
2013-05-05 09:46:00,50.6,48.0,30.00,North,0,1.6,3.1,91,0.26,,,1.28,WUHU216HW,2013-05-05 13:46:00,
2013-05-05 09:51:00,50.6,48.0,30.01,North,0,1.1,1.6,91,0.28,,,1.30,WUHU216HW,2013-05-05 13:51:00,
2013-05-05 09:56:00,50.6,48.0,30.00,NNE,23,0.2,1.1,91,0.31,,,1.33,WUHU216HW,2013-05-05 13:56:00,
2013-05-05 10:01:00,50.8,48.2,30.00,North,0,0.9,1.1,91,0.38,,,1.41,WUHU216HW,2013-05-05 14:01:00,
2013-05-05 10:06:00,50.8,48.2,30.00,ESE,113,0.2,0.9,91,0.41,,,1.44,WUHU216HW,2013-05-05 14:06:00,
2013-05-05 10:12:00,50.8,48.2,30.00,ESE,113,0.2,0.9,91,0.42,,,1.47,WUHU216HW,2013-05-05 14:12:00,
2013-05-05 10:17:00,50.8,48.2,29.99,NE,45,0.9,0.9,91,0.45,,,1.50,WUHU216HW,2013-05-05 14:17:00,
2013-05-05 10:22:00,50.8,48.2,29.99,North,0,0.0,1.8,91,0.49,,,1.56,WUHU216HW,2013-05-05 14:22:00,
2013-05-05 10:27:00,50.8,48.2,29.99,NNE,23,0.0,1.8,91,0.46,,,1.56,WUHU216HW,2013-05-05 14:27:00,
2013-05-05 10:32:00,50.8,48.2,29.99,NE,45,1.8,1.8,91,0.43,,,1.58,WUHU216HW,2013-05-05 14:32:00,
2013-05-05 10:37:00,50.9,48.3,29.99,East,97,1.5,1.8,91,0.44,,,1.61,WUHU216HW,2013-05-05 14:37:00,
2013-05-05 10:42:00,51.1,48.5,29.99,NE,45,0.4,1.8,91,0.37,,,1.62,WUHU216HW,2013-05-05 14:42:00,
2013-05-05 10:47:00,51.1,48.5,29.99,ESE,113,0.4,1.3,91,0.32,,,1.62,WUHU216HW,2013-05-05 14:47:00,
2013-05-05 10:53:00,51.1,48.8,29.99,NE,56,1.2,1.3,92,0.35,,,1.65,WUHU216HW,2013-05-05 14:53:00,
2013-05-05 10:58:00,51.1,48.8,29.99,NW,315,1.6,1.6,92,0.30,,,1.66,WUHU216HW,2013-05-05 14:58:00,
2013-05-05 11:03:00,51.1,48.8,29.99,NE,45,2.5,2.5,92,0.26,,,1.67,WUHU216HW,2013-05-05 15:03:00,
2013-05-05 11:08:00,51.1,48.8,29.98,NNE,23,1.6,2.5,92,0.24,,,1.68,WUHU216HW,2013-05-05 15:08:00,
2013-05-05 11:13:00,51.1,48.8,29.99,NNE,18,2.1,2.5,92,0.24,,,1.71,WUHU216HW,2013-05-05 15:13:00,
2013-05-05 11:18:00,51.1,48.8,29.99,NNE,23,1.8,2.2,92,0.20,,,1.72,WUHU216HW,2013-05-05 15:18:00,
2013-05-05 11:23:00,51.1,48.8,29.98,NNE,23,4.0,4.0,92,0.17,,,1.73,WUHU216HW,2013-05-05 15:23:00,
2013-05-05 11:28:00,50.9,48.6,29.99,ENE,68,0.9,4.0,92,0.16,,,1.74,WUHU216HW,2013-05-05 15:28:00,
2013-05-05 11:34:00,50.8,48.2,29.99,ENE,66,1.8,4.0,91,0.18,,,1.78,WUHU216HW,2013-05-05 15:34:00,
2013-05-05 11:39:00,50.9,48.3,29.99,North,0,2.2,2.2,91,0.17,,,1.78,WUHU216HW,2013-05-05 15:39:00,
2013-05-05 11:44:00,50.9,48.3,29.99,NNE,23,1.1,2.2,91,0.17,,,1.79,WUHU216HW,2013-05-05 15:44:00,
2013-05-05 11:49:00,50.9,48.3,29.99,North,0,1.6,2.2,91,0.17,,,1.81,WUHU216HW,2013-05-05 15:49:00,
2013-05-05 11:54:00,50.9,48.3,29.99,NNE,23,1.6,1.6,91,0.17,,,1.82,WUHU216HW,2013-05-05 15:54:00,
2013-05-05 11:59:00,50.9,48.6,29.99,ENE,68,1.1,1.6,92,0.18,,,1.84,WUHU216HW,2013-05-05 15:59:00,
2013-05-05 12:04:00,51.1,48.5,29.99,ENE,68,0.4,1.6,91,0.18,,,1.86,WUHU216HW,2013-05-05 16:04:00,
2013-05-05 12:09:00,51.1,48.5,29.99,SW,225,0.4,1.1,91,0.18,,,1.87,WUHU216HW,2013-05-05 16:09:00,
2013-05-05 12:15:00,51.1,48.8,29.99,NE,45,1.8,1.8,92,0.20,,,1.91,WUHU216HW,2013-05-05 16:15:00,
2013-05-05 12:20:00,51.1,48.5,30.00,NNW,333,0.5,1.8,91,0.23,,,1.95,WUHU216HW,2013-05-05 16:20:00,
2013-05-05 12:25:00,50.9,48.3,30.00,SE,135,2.7,2.7,91,0.23,,,1.97,WUHU216HW,2013-05-05 16:25:00,
2013-05-05 12:30:00,51.1,48.5,30.01,SSW,203,0.0,2.7,91,0.22,,,1.98,WUHU216HW,2013-05-05 16:30:00,
2013-05-05 12:35:00,51.3,48.7,30.00,NE,45,1.8,2.7,91,0.22,,,2.00,WUHU216HW,2013-05-05 16:35:00,
2013-05-05 12:40:00,51.3,48.7,30.00,ENE,68,1.1,1.8,91,0.24,,,2.02,WUHU216HW,2013-05-05 16:40:00,
2013-05-05 12:45:00,51.3,48.7,29.99,North,0,1.8,1.8,91,0.24,,,2.03,WUHU216HW,2013-05-05 16:45:00,
2013-05-05 12:51:00,51.3,48.7,29.99,NNW,338,0.9,4.0,91,0.23,,,2.04,WUHU216HW,2013-05-05 16:51:00,
2013-05-05 12:56:00,51.5,48.9,29.99,SE,135,1.6,4.0,91,0.24,,,2.06,WUHU216HW,2013-05-05 16:56:00,
2013-05-05 13:01:00,51.7,49.1,29.98,North,0,1.8,3.4,91,0.21,,,2.07,WUHU216HW,2013-05-05 17:01:00,
2013-05-05 13:06:00,51.8,49.2,29.98,NNE,23,4.5,4.5,91,0.22,,,2.08,WUHU216HW,2013-05-05 17:06:00,
2013-05-05 13:11:00,52.0,49.7,29.97,North,6,1.9,4.5,92,0.17,,,2.08,WUHU216HW,2013-05-05 17:11:00,
2013-05-05 13:16:00,52.2,50.2,29.96,ENE,68,1.3,4.5,93,0.18,,,2.09,WUHU216HW,2013-05-05 17:16:00,
2013-05-05 13:21:00,52.2,49.9,29.96,ESE,113,3.4,3.4,92,0.16,,,2.11,WUHU216HW,2013-05-05 17:21:00,
2013-05-05 13:26:00,52.0,49.7,29.95,ESE,113,2.5,3.4,92,0.14,,,2.12,WUHU216HW,2013-05-05 17:26:00,
2013-05-05 13:32:00,52.2,50.2,29.95,North,0,1.6,3.4,93,0.13,,,2.13,WUHU216HW,2013-05-05 17:32:00,
2013-05-05 13:37:00,52.6,50.2,29.95,NE,45,1.8,2.5,92,0.15,,,2.15,WUHU216HW,2013-05-05 17:37:00,
2013-05-05 13:42:00,52.9,50.6,29.96,NNE,23,1.1,1.8,92,0.14,,,2.16,WUHU216HW,2013-05-05 17:42:00,
2013-05-05 13:47:00,52.9,50.6,29.95,ENE,68,4.7,4.7,92,0.12,,,2.16,WUHU216HW,2013-05-05 17:47:00,
2013-05-05 13:52:00,52.7,50.4,29.95,East,80,3.0,4.7,92,0.15,,,2.19,WUHU216HW,2013-05-05 17:52:00,
2013-05-05 13:57:00,52.9,50.6,29.96,NNW,338,2.2,4.7,92,0.13,,,2.19,WUHU216HW,2013-05-05 17:57:00,
2013-05-05 14:02:00,52.9,50.6,29.96,NNE,23,5.1,5.1,92,0.12,,,2.19,WUHU216HW,2013-05-05 18:02:00,
2013-05-05 14:07:00,52.9,50.6,29.96,ENE,68,1.8,5.1,92,0.11,,,2.19,WUHU216HW,2013-05-05 18:07:00,
2013-05-05 14:12:00,52.9,50.6,29.96,ENE,61,1.2,5.1,92,0.11,,,2.19,WUHU216HW,2013-05-05 18:12:00,
2013-05-05 14:18:00,52.9,50.6,29.95,NE,45,1.1,1.3,92,0.10,,,2.19,WUHU216HW,2013-05-05 18:18:00,
2013-05-05 14:22:00,52.9,50.3,29.96,ESE,113,2.7,2.7,91,0.09,,,2.20,WUHU216HW,2013-05-05 18:22:00,
2013-05-05 14:28:00,52.6,50.0,29.95,North,0,5.4,5.4,91,0.13,,,2.25,WUHU216HW,2013-05-05 18:28:00,
2013-05-05 14:33:00,52.6,50.0,29.95,East,90,1.8,5.4,91,0.11,,,2.26,WUHU216HW,2013-05-05 18:33:00,
2013-05-05 14:38:00,52.4,49.8,29.95,NNW,338,0.4,5.4,91,0.12,,,2.27,WUHU216HW,2013-05-05 18:38:00,
2013-05-05 14:43:00,52.4,50.0,29.95,NE,45,2.5,2.5,92,0.13,,,2.29,WUHU216HW,2013-05-05 18:43:00,
2013-05-05 14:48:00,52.4,50.0,29.95,NE,45,2.5,2.5,92,0.12,,,2.29,WUHU216HW,2013-05-05 18:48:00,
2013-05-05 14:53:00,52.2,49.9,29.94,North,3,2.7,3.4,92,0.10,,,2.29,WUHU216HW,2013-05-05 18:53:00,
2013-05-05 14:58:00,52.2,49.9,29.95,NNE,23,1.3,3.4,92,0.10,,,2.29,WUHU216HW,2013-05-05 18:58:00,
2013-05-05 15:04:00,51.8,49.2,29.95,ESE,113,1.6,1.6,91,0.13,,,2.32,WUHU216HW,2013-05-05 19:04:00,
2013-05-05 15:09:00,51.8,49.5,29.96,NNE,23,2.0,2.0,92,0.13,,,2.32,WUHU216HW,2013-05-05 19:09:00,
2013-05-05 15:14:00,51.8,49.5,29.97,WNW,293,1.3,2.0,92,0.14,,,2.33,WUHU216HW,2013-05-05 19:14:00,
2013-05-05 15:19:00,52.0,49.7,29.97,SE,135,1.1,2.0,92,0.16,,,2.35,WUHU216HW,2013-05-05 19:19:00,
2013-05-05 15:24:00,52.0,49.7,29.97,SE,135,1.1,1.3,92,0.12,,,2.35,WUHU216HW,2013-05-05 19:24:00,
2013-05-05 15:29:00,52.2,49.9,29.97,NNE,13,1.5,1.6,92,0.12,,,2.37,WUHU216HW,2013-05-05 19:29:00,
2013-05-05 15:34:00,52.4,50.0,29.96,NNW,338,1.3,1.6,92,0.13,,,2.39,WUHU216HW,2013-05-05 19:34:00,
2013-05-05 15:39:00,52.6,50.2,29.96,ENE,68,0.7,1.3,92,0.12,,,2.41,WUHU216HW,2013-05-05 19:39:00,
2013-05-05 15:44:00,52.4,50.0,29.95,NNE,23,2.9,2.9,92,0.14,,,2.43,WUHU216HW,2013-05-05 19:44:00,
2013-05-05 15:49:00,52.2,49.9,29.95,NE,45,0.9,2.9,92,0.17,,,2.46,WUHU216HW,2013-05-05 19:49:00,
2013-05-05 15:55:00,52.2,49.9,29.94,NE,45,1.1,2.9,92,0.20,,,2.49,WUHU216HW,2013-05-05 19:55:00,
2013-05-05 16:00:00,52.4,50.0,29.95,North,7,3.1,4.7,92,0.20,,,2.51,WUHU216HW,2013-05-05 20:00:00,
2013-05-05 16:05:00,52.2,49.9,29.95,NNW,347,2.4,4.7,92,0.19,,,2.51,WUHU216HW,2013-05-05 20:05:00,
2013-05-05 16:10:00,52.2,49.9,29.94,NE,45,3.8,3.8,92,0.19,,,2.51,WUHU216HW,2013-05-05 20:10:00,
2013-05-05 16:15:00,52.2,49.9,29.94,NNW,338,0.0,3.8,92,0.16,,,2.51,WUHU216HW,2013-05-05 20:15:00,
2013-05-05 16:20:00,52.4,50.0,29.93,ENE,68,4.7,4.7,92,0.17,,,2.52,WUHU216HW,2013-05-05 20:20:00,
2013-05-05 16:25:00,52.4,50.4,29.94,NE,45,4.7,4.7,93,0.19,,,2.54,WUHU216HW,2013-05-05 20:25:00,
2013-05-05 16:30:00,52.6,50.2,29.94,North,0,5.1,5.1,92,0.19,,,2.56,WUHU216HW,2013-05-05 20:30:00,
2013-05-05 16:36:00,52.6,50.2,29.94,East,90,2.2,5.1,92,0.17,,,2.56,WUHU216HW,2013-05-05 20:36:00,
2013-05-05 16:41:00,52.4,50.0,29.94,ESE,113,0.9,5.1,92,0.17,,,2.58,WUHU216HW,2013-05-05 20:41:00,
2013-05-05 16:46:00,52.4,50.0,29.93,NE,45,3.2,4.0,92,0.15,,,2.61,WUHU216HW,2013-05-05 20:46:00,
2013-05-05 16:51:00,52.4,50.0,29.94,NW,315,1.6,4.0,92,0.15,,,2.63,WUHU216HW,2013-05-05 20:51:00,
2013-05-05 16:56:00,52.2,49.9,29.93,North,0,3.6,3.6,92,0.16,,,2.65,WUHU216HW,2013-05-05 20:56:00,
2013-05-05 17:01:00,52.2,49.9,29.93,NE,45,3.4,3.6,92,0.15,,,2.66,WUHU216HW,2013-05-05 21:01:00,
2013-05-05 17:06:00,52.2,49.9,29.92,NNE,23,2.0,3.6,92,0.15,,,2.66,WUHU216HW,2013-05-05 21:06:00,
2013-05-05 17:11:00,52.2,49.9,29.92,NNE,23,2.0,3.4,92,0.15,,,2.66,WUHU216HW,2013-05-05 21:11:00,
2013-05-05 17:16:00,52.2,49.9,29.92,NNE,23,2.0,2.0,92,0.15,,,2.66,WUHU216HW,2013-05-05 21:16:00,
2013-05-05 17:21:00,51.8,49.5,29.91,NNW,338,4.5,4.5,92,0.16,,,2.68,WUHU216HW,2013-05-05 21:21:00,
2013-05-05 17:26:00,51.8,49.5,29.91,NNW,348,3.6,4.5,92,0.15,,,2.69,WUHU216HW,2013-05-05 21:26:00,
2013-05-05 17:31:00,51.8,49.5,29.91,NNE,23,2.2,4.5,92,0.13,,,2.69,WUHU216HW,2013-05-05 21:31:00,
2013-05-05 17:36:00,51.8,49.5,29.91,NNE,18,2.0,2.2,92,0.14,,,2.70,WUHU216HW,2013-05-05 21:36:00,
2013-05-05 17:41:00,51.8,49.5,29.91,North,0,1.6,2.2,92,0.12,,,2.70,WUHU216HW,2013-05-05 21:41:00,
2013-05-05 17:46:00,51.8,49.5,29.90,North,0,1.6,1.6,92,0.09,,,2.70,WUHU216HW,2013-05-05 21:46:00,
2013-05-05 17:51:00,51.8,49.5,29.90,North,0,1.6,1.6,92,0.07,,,2.70,WUHU216HW,2013-05-05 21:51:00,
2013-05-05 17:56:00,51.8,49.5,29.90,North,0,0.9,1.6,92,0.09,,,2.74,WUHU216HW,2013-05-05 21:56:00,
2013-05-05 18:02:00,51.8,49.9,29.90,North,0,1.1,1.6,93,0.08,,,2.74,WUHU216HW,2013-05-05 22:02:00,
2013-05-05 18:07:00,52.0,50.1,29.90,NE,45,2.2,2.2,93,0.10,,,2.76,WUHU216HW,2013-05-05 22:07:00,
2013-05-05 18:12:00,52.2,50.2,29.90,North,0,4.0,4.0,93,0.10,,,2.76,WUHU216HW,2013-05-05 22:12:00,
2013-05-05 18:17:00,52.2,50.2,29.90,NNW,346,3.4,4.0,93,0.11,,,2.77,WUHU216HW,2013-05-05 22:17:00,
2013-05-05 18:22:00,52.4,50.4,29.89,North,0,4.7,4.7,93,0.09,,,2.77,WUHU216HW,2013-05-05 22:22:00,
2013-05-05 18:27:00,52.6,50.6,29.89,ESE,113,2.9,4.7,93,0.08,,,2.77,WUHU216HW,2013-05-05 22:27:00,
2013-05-05 18:32:00,52.7,51.3,29.89,NNW,345,2.3,4.7,95,0.09,,,2.78,WUHU216HW,2013-05-05 22:32:00,
2013-05-05 18:37:00,52.9,51.2,29.89,ENE,68,0.4,2.9,94,0.08,,,2.78,WUHU216HW,2013-05-05 22:37:00,
2013-05-05 18:42:00,53.1,51.4,29.89,South,180,1.7,2.2,94,0.09,,,2.79,WUHU216HW,2013-05-05 22:42:00,
2013-05-05 18:47:00,53.3,51.6,29.89,North,7,0.9,1.8,94,0.10,,,2.80,WUHU216HW,2013-05-05 22:47:00,
2013-05-05 18:53:00,53.6,51.9,29.89,East,90,1.3,1.3,94,0.09,,,2.81,WUHU216HW,2013-05-05 22:53:00,
2013-05-05 18:58:00,53.8,52.1,29.89,NE,45,1.8,1.8,94,0.08,,,2.82,WUHU216HW,2013-05-05 22:58:00,
2013-05-05 19:03:00,53.8,52.1,29.89,SE,135,0.7,1.8,94,0.09,,,2.85,WUHU216HW,2013-05-05 23:03:00,
2013-05-05 19:06:00,54.0,52.3,29.90,West,270,0.9,0.9,94,0.12,,,2.88,WUHU216HW,2013-05-05 23:06:00,
2013-05-05 19:08:00,54.0,52.3,29.90,West,270,0.9,2.5,94,0.12,,,2.88,WUHU216HW,2013-05-05 23:08:00,
2013-05-05 19:13:00,54.0,52.3,29.90,West,270,0.9,2.5,94,0.12,,,2.88,WUHU216HW,2013-05-05 23:13:00,
2013-05-05 19:36:00,54.7,52.8,29.89,WSW,248,0.9,0.9,93,0.10,,,2.88,WUHU216HW,2013-05-05 23:36:00,
2013-05-05 19:37:00,54.7,52.8,29.89,WSW,248,0.9,0.9,93,0.10,,,2.88,WUHU216HW,2013-05-05 23:37:00,
2013-05-05 19:42:00,54.7,52.8,29.89,WSW,248,0.9,0.9,93,0.10,,,2.88,WUHU216HW,2013-05-05 23:42:00,
2013-05-05 20:00:00,55.1,53.1,29.90,SSE,158,0.9,0.9,93,0.17,,,3.02,WUHU216HW,2013-05-06 00:00:00,
2013-05-05 20:05:00,55.1,53.1,29.90,SSE,158,0.9,0.9,93,0.17,,,3.02,WUHU216HW,2013-05-06 00:05:00,
2013-05-05 20:30:00,55.4,53.5,29.89,NW,315,0.0,0.0,93,0.12,,,3.14,WUHU216HW,2013-05-06 00:30:00,
2013-05-05 20:35:00,55.4,53.5,29.89,NW,315,0.0,0.0,93,0.12,,,3.14,WUHU216HW,2013-05-06 00:35:00,
2013-05-05 21:00:00,55.8,53.8,29.89,ESE,113,0.4,0.4,93,0.00,,,3.39,WUHU216HW,2013-05-06 01:00:00,
2013-05-05 21:05:00,55.8,53.8,29.89,ESE,113,0.4,0.4,93,0.00,,,3.39,WUHU216HW,2013-05-06 01:05:00,
2013-05-05 21:30:00,55.8,53.8,29.89,NNE,23,0.4,0.4,93,0.00,,,3.53,WUHU216HW,2013-05-06 01:30:00,
2013-05-05 21:35:00,55.8,53.8,29.89,NNE,23,0.4,0.4,93,0.00,,,3.53,WUHU216HW,2013-05-06 01:35:00,
2013-05-05 22:00:00,57.1,55.1,29.90,SW,225,2.2,2.2,93,0.12,,,3.65,WUHU216HW,2013-05-06 02:00:00,
2013-05-05 22:05:00,57.1,55.1,29.90,SW,225,2.2,2.2,93,0.12,,,3.65,WUHU216HW,2013-05-06 02:05:00,
2013-05-05 22:30:00,56.9,54.9,29.89,East,90,2.5,2.5,93,0.00,,,3.87,WUHU216HW,2013-05-06 02:30:00,
2013-05-05 22:35:00,56.9,54.9,29.89,East,90,2.5,2.5,93,0.00,,,3.87,WUHU216HW,2013-05-06 02:35:00,
2013-05-05 23:00:00,57.6,55.6,29.90,SE,135,1.8,1.8,93,0.22,,,4.09,WUHU216HW,2013-05-06 03:00:00,
2013-05-05 23:05:00,57.6,55.6,29.90,SE,135,1.8,1.8,93,0.22,,,4.09,WUHU216HW,2013-05-06 03:05:00,
2013-05-05 23:30:00,56.9,54.9,29.90,ESE,113,1.1,1.1,93,0.01,,,4.10,WUHU216HW,2013-05-06 03:30:00,
2013-05-05 23:35:00,56.9,54.9,29.90,ESE,113,1.1,1.1,93,0.01,,,4.10,WUHU216HW,2013-05-06 03:35:00,